LNG Leo — V7BX2 — position and weather

sailwx.info

Track history (hours):
 
Tides and Currents Weather Stations Pressure Air Temp Water Temp Dewpoint Dewpoint Depression Visibility Wind Speed Wind Dir Waves Ship Positions

LNG Leo

Last reported at 2014-Dec-21 16:32 UTC. Time now 2014-Dec-21 17:16 UTC.
Position N 51°58' E 004°05'.

Type: Tanker. MMSI: 538001389.

Date/timePositionNaut miles runAvg speedWind from/ knotsBaromVisibWave heightAir tempDewpointWater temp
2014-Dec-21 16:32N 51°58' E 004°05'0 0.0
2014-Dec-21 15:32N 51°58' E 004°05'0 0.0
2014-Dec-21 14:32N 51°58' E 004°05'0 0.0
2014-Dec-21 13:32N 51°58' E 004°05'0 0.0
2014-Dec-21 12:32N 51°58' E 004°05'0 0.0
2014-Dec-21 11:32N 51°58' E 004°05'0 0.0
2014-Dec-21 10:32N 51°58' E 004°05'0 0.0
2014-Dec-21 09:29N 51°58' E 004°05'0 0.0
2014-Dec-21 08:34N 51°58' E 004°05'1 0.7
2014-Dec-21 07:33N 51°59' E 004°04'8 7.7
2014-Dec-21 06:34N 52°02' E 003°52'1111.0
2014-Dec-21 05:34N 52°00' E 003°35'3 3.0
2014-Dec-21 04:32N 51°60' E 003°30'7 7.5
2014-Dec-21 03:32N 51°55' E 003°20'1210.7
2014-Dec-21 02:27N 51°51' E 003°02'1613.0
2014-Dec-21 01:11N 51°46' E 002°37'914.4
2014-Dec-21 00:33N 51°39' E 002°28'1414.1
2014-Dec-20 23:32N 51°27' E 002°14'1413.9
2014-Dec-20 22:33N 51°15' E 002°05'1515.0
2014-Dec-20 21:34N 51°06' E 001°45'1515.0
2014-Dec-20 20:34N 50°54' E 001°31'1313.4
2014-Dec-20 19:34N 50°42' E 001°22'  
Track history (hours):
 
Tides and Currents Weather Stations Pressure Air Temp Water Temp Dewpoint Dewpoint Depression Visibility Wind Speed Wind Dir Waves Ship Positions

LNG Leo

Last reported at 2014-Dec-21 16:32 UTC. Time now 2014-Dec-21 17:16 UTC.
Position N 51°58' E 004°05'.

Type: Tanker. MMSI: 538001389.

Date/timePositionNaut miles runAvg speedWind from/ knotsBaromVisibWave heightAir tempDewpointWater temp
2014-Dec-21 16:32N 51°58' E 004°05'0 0.0
2014-Dec-21 15:32N 51°58' E 004°05'0 0.0
2014-Dec-21 14:32N 51°58' E 004°05'0 0.0
2014-Dec-21 13:32N 51°58' E 004°05'0 0.0
2014-Dec-21 12:32N 51°58' E 004°05'0 0.0
2014-Dec-21 11:32N 51°58' E 004°05'0 0.0
2014-Dec-21 10:32N 51°58' E 004°05'0 0.0
2014-Dec-21 09:29N 51°58' E 004°05'0 0.0
2014-Dec-21 08:34N 51°58' E 004°05'1 0.7
2014-Dec-21 07:33N 51°59' E 004°04'8 7.7
2014-Dec-21 06:34N 52°02' E 003°52'1111.0
2014-Dec-21 05:34N 52°00' E 003°35'3 3.0
2014-Dec-21 04:32N 51°60' E 003°30'7 7.5
2014-Dec-21 03:32N 51°55' E 003°20'1210.7
2014-Dec-21 02:27N 51°51' E 003°02'1613.0
2014-Dec-21 01:11N 51°46' E 002°37'914.4
2014-Dec-21 00:33N 51°39' E 002°28'1414.1
2014-Dec-20 23:32N 51°27' E 002°14'1413.9
2014-Dec-20 22:33N 51°15' E 002°05'1515.0
2014-Dec-20 21:34N 51°06' E 001°45'1515.0
2014-Dec-20 20:34N 50°54' E 001°31'1313.4
2014-Dec-20 19:34N 50°42' E 001°22'  

Dump ship's entire track history